createdAt,value
2017-08-30T00:01:10.525Z,7.43
2017-08-30T00:03:38.920Z,6.57
2017-08-30T00:06:07.361Z,6.90
2017-08-30T00:08:35.761Z,8.67
2017-08-30T00:11:05.165Z,7.83
2017-08-30T00:13:33.564Z,7.23
2017-08-30T00:16:01.925Z,7.40
2017-08-30T00:18:31.197Z,7.10
2017-08-30T00:20:59.577Z,6.90
2017-08-30T00:23:27.952Z,6.90
2017-08-30T00:26:07.421Z,7.90
2017-08-30T00:28:35.799Z,8.27
2017-08-30T00:31:04.185Z,7.53
2017-08-30T00:33:32.566Z,7.37
2017-08-30T00:36:00.949Z,7.97
2017-08-30T00:38:28.993Z,8.70
2017-08-30T00:40:57.185Z,7.10
2017-08-30T00:43:25.838Z,7.30
2017-08-30T00:45:54.206Z,7.00
2017-08-30T00:48:22.582Z,8.03
2017-08-30T00:50:50.968Z,7.57
2017-08-30T00:53:19.358Z,7.90
2017-08-30T00:55:48.791Z,7.00
2017-08-30T00:58:17.404Z,7.50
2017-08-30T01:00:45.085Z,7.47
2017-08-30T01:03:13.476Z,8.60
2017-08-30T01:05:42.712Z,8.30
2017-08-30T01:08:11.401Z,8.27
2017-08-30T01:10:39.826Z,8.40
2017-08-30T01:13:08.213Z,9.20
2017-08-30T01:15:36.611Z,7.90
2017-08-30T01:18:04.981Z,8.80
2017-08-30T01:20:33.762Z,8.83
2017-08-30T01:23:01.809Z,9.30
2017-08-30T01:25:30.194Z,8.90
2017-08-30T01:27:58.586Z,10.40
2017-08-30T01:30:27.737Z,9.77
2017-08-30T01:32:56.376Z,8.67
2017-08-30T01:35:25.521Z,9.77
2017-08-30T01:37:53.901Z,10.87
2017-08-30T01:43:01.430Z,9.40
2017-08-30T01:45:29.831Z,10.40
2017-08-30T01:47:58.251Z,10.53
2017-08-30T01:50:26.647Z,10.93
2017-08-30T01:52:55.056Z,10.40
2017-08-30T01:55:23.282Z,10.87
2017-08-30T01:57:51.677Z,10.70
2017-08-30T02:00:20.061Z,10.53
2017-08-30T02:02:48.573Z,10.63
2017-08-30T02:05:16.957Z,11.50
2017-08-30T02:07:46.101Z,10.17
2017-08-30T02:10:14.485Z,9.70
2017-08-30T02:12:42.869Z,10.30
2017-08-30T02:15:11.257Z,10.97
2017-08-30T02:17:39.646Z,11.17
2017-08-30T02:20:08.055Z,11.47
2017-08-30T02:22:36.433Z,11.60
2017-08-30T02:25:04.826Z,11.00
2017-08-30T02:27:33.233Z,11.90
2017-08-30T02:30:01.613Z,11.77
2017-08-30T02:32:30.013Z,10.70
2017-08-30T02:34:58.385Z,10.80
2017-08-30T02:37:26.789Z,9.90
2017-08-30T02:39:55.177Z,10.07
2017-08-30T02:42:23.474Z,11.10
2017-08-30T02:44:51.866Z,11.17
2017-08-30T02:47:20.283Z,10.43
2017-08-30T02:49:48.676Z,10.97
2017-08-30T02:52:17.062Z,9.63
2017-08-30T02:54:45.454Z,10.90
2017-08-30T02:57:13.834Z,10.00
2017-08-30T02:59:42.264Z,10.73
2017-08-30T03:02:10.646Z,10.17
2017-08-30T03:04:39.042Z,10.13
2017-08-30T03:07:08.275Z,11.00
2017-08-30T03:09:36.657Z,9.53
2017-08-30T03:12:05.053Z,10.70
2017-08-30T03:14:33.430Z,9.70
2017-08-30T03:17:01.869Z,10.83
2017-08-30T03:19:31.010Z,10.00
2017-08-30T03:21:59.384Z,11.20
2017-08-30T03:24:27.783Z,10.07
2017-08-30T03:26:56.157Z,10.93
2017-08-30T03:29:24.560Z,10.57
2017-08-30T03:31:53.702Z,11.40
2017-08-30T03:34:22.105Z,10.23
2017-08-30T03:36:50.489Z,9.83
2017-08-30T03:39:18.881Z,9.93
2017-08-30T03:41:47.275Z,11.17
2017-08-30T03:44:15.657Z,11.30
2017-08-30T03:46:44.059Z,9.00
2017-08-30T03:49:12.437Z,11.60
2017-08-30T03:51:40.845Z,11.17
2017-08-30T03:54:09.237Z,11.23
2017-08-30T03:56:37.625Z,10.73
2017-08-30T03:59:06.019Z,11.17
2017-08-30T04:01:35.180Z,11.90
2017-08-30T04:04:03.573Z,12.03
2017-08-30T04:06:31.771Z,11.60
2017-08-30T04:09:00.177Z,11.50
2017-08-30T04:11:28.544Z,11.67
2017-08-30T04:13:56.945Z,11.60
2017-08-30T04:16:25.333Z,12.70
2017-08-30T04:18:55.381Z,12.17
2017-08-30T04:21:23.772Z,12.57
2017-08-30T04:23:52.192Z,12.77
2017-08-30T04:26:20.822Z,12.43
2017-08-30T04:28:49.197Z,12.80
2017-08-30T04:31:17.583Z,12.73
2017-08-30T04:33:46.754Z,11.47
2017-08-30T04:36:15.134Z,12.57
2017-08-30T04:38:43.532Z,11.90
2017-08-30T04:41:11.909Z,10.97
2017-08-30T04:43:40.311Z,13.23
2017-08-30T04:46:08.680Z,11.67
2017-08-30T04:48:37.075Z,11.30
2017-08-30T04:51:05.481Z,12.40
2017-08-30T04:53:33.870Z,10.53
2017-08-30T04:56:02.277Z,12.70
2017-08-30T04:58:30.709Z,12.27
2017-08-30T05:00:58.921Z,12.27
2017-08-30T05:03:27.313Z,10.70
2017-08-30T05:05:55.695Z,11.23
2017-08-30T05:08:24.106Z,12.13
2017-08-30T05:10:52.490Z,12.20
2017-08-30T05:13:20.887Z,12.73
2017-08-30T05:15:49.347Z,11.40
2017-08-30T05:18:17.749Z,11.27
2017-08-30T05:20:46.137Z,11.33
2017-08-30T05:23:14.535Z,11.17
2017-08-30T05:25:42.942Z,10.93
2017-08-30T05:28:11.346Z,10.60
2017-08-30T05:30:39.765Z,11.33
2017-08-30T05:33:08.150Z,9.60
2017-08-30T05:35:36.544Z,9.50
2017-08-30T05:38:04.926Z,10.63
2017-08-30T05:40:33.433Z,10.03
2017-08-30T05:43:01.877Z,10.80
2017-08-30T05:45:30.301Z,8.83
2017-08-30T05:47:58.690Z,10.67
2017-08-30T05:50:27.065Z,10.23
2017-08-30T05:52:55.558Z,11.33
2017-08-30T05:55:23.965Z,11.30
2017-08-30T05:57:53.157Z,12.00
2017-08-30T06:00:21.538Z,11.50
2017-08-30T06:02:49.969Z,10.03
2017-08-30T06:05:18.361Z,10.53
2017-08-30T06:07:46.742Z,10.60
2017-08-30T06:10:15.352Z,10.27
2017-08-30T06:12:43.745Z,11.97
2017-08-30T06:15:12.150Z,12.00
2017-08-30T06:17:40.545Z,12.60
2017-08-30T06:20:08.918Z,11.77
2017-08-30T06:22:37.310Z,11.57
2017-08-30T06:25:05.697Z,12.70
2017-08-30T06:27:34.102Z,12.13
2017-08-30T06:30:02.516Z,12.23
2017-08-30T06:32:31.185Z,12.90
2017-08-30T06:34:59.574Z,11.77
2017-08-30T06:37:27.959Z,13.27
2017-08-30T06:39:56.388Z,13.63
2017-08-30T06:42:24.782Z,13.47
2017-08-30T06:44:53.406Z,12.77
2017-08-30T06:47:21.799Z,13.77
2017-08-30T06:49:50.192Z,13.53
2017-08-30T06:52:18.580Z,12.37
2017-08-30T06:54:46.958Z,11.90
2017-08-30T06:57:15.361Z,12.73
2017-08-30T06:59:43.741Z,12.07
2017-08-30T07:02:12.934Z,12.60
2017-08-30T07:04:41.127Z,12.00
2017-08-30T07:07:09.501Z,13.30
2017-08-30T07:09:37.896Z,11.53
2017-08-30T07:12:06.386Z,13.77
2017-08-30T07:14:34.791Z,12.60
2017-08-30T07:17:03.181Z,14.07
2017-08-30T07:19:31.635Z,13.37
2017-08-30T07:22:00.038Z,12.83
2017-08-30T07:24:28.445Z,12.30
2017-08-30T07:26:56.841Z,11.70
2017-08-30T07:29:25.332Z,13.40
2017-08-30T07:31:53.732Z,13.20
2017-08-30T07:34:22.129Z,12.80
2017-08-30T07:36:50.526Z,12.43
2017-08-30T07:39:19.175Z,12.53
2017-08-30T07:41:47.558Z,12.73
2017-08-30T07:44:15.995Z,12.73
2017-08-30T07:46:44.369Z,12.37
2017-08-30T07:49:12.787Z,14.23
2017-08-30T07:51:41.173Z,13.97
2017-08-30T07:54:09.551Z,13.70
2017-08-30T07:56:37.957Z,13.03
2017-08-30T07:59:06.337Z,14.77
2017-08-30T08:01:34.737Z,13.30
2017-08-30T08:04:03.120Z,13.03
2017-08-30T08:06:31.529Z,14.07
2017-08-30T08:08:59.743Z,13.60
2017-08-30T08:11:28.125Z,13.20
2017-08-30T08:13:56.513Z,13.63
2017-08-30T08:16:25.677Z,14.50
2017-08-30T08:18:54.070Z,14.53
2017-08-30T08:21:22.462Z,13.10
2017-08-30T08:23:50.683Z,13.63
2017-08-30T08:26:19.071Z,13.60
2017-08-30T08:28:47.685Z,12.93
2017-08-30T08:31:16.085Z,13.67
2017-08-30T08:33:44.462Z,12.03
2017-08-30T08:36:12.857Z,13.50
2017-08-30T08:38:41.246Z,12.63
2017-08-30T08:41:09.670Z,12.67
2017-08-30T08:43:38.185Z,13.00
2017-08-30T08:46:06.576Z,15.53
2017-08-30T08:48:34.985Z,13.60
2017-08-30T08:51:03.361Z,12.37
2017-08-30T08:53:31.754Z,13.50
2017-08-30T08:56:00.137Z,15.67
2017-08-30T08:58:28.541Z,13.60
2017-08-30T09:00:57.687Z,16.20
2017-08-30T09:03:26.148Z,14.53
2017-08-30T09:05:54.541Z,15.20
2017-08-30T09:08:22.923Z,14.77
2017-08-30T09:10:51.328Z,14.53
2017-08-30T09:13:19.519Z,14.27
2017-08-30T09:15:47.933Z,14.77
2017-08-30T09:18:16.309Z,15.27
2017-08-30T09:20:44.698Z,14.00
2017-08-30T09:23:13.089Z,14.87
2017-08-30T09:25:41.478Z,15.20
2017-08-30T09:28:09.867Z,14.90
2017-08-30T09:30:38.252Z,16.47
2017-08-30T09:33:06.846Z,17.17
2017-08-30T09:35:35.259Z,16.20
2017-08-30T09:38:03.635Z,17.93
2017-08-30T09:40:32.032Z,16.90
2017-08-30T09:43:00.409Z,18.50
2017-08-30T09:45:28.617Z,19.73
2017-08-30T09:47:56.991Z,17.37
2017-08-30T09:50:25.201Z,17.70
2017-08-30T09:52:53.581Z,18.50
2017-08-30T09:55:21.970Z,18.17
2017-08-30T09:57:50.363Z,17.37
2017-08-30T10:00:18.740Z,16.83
2017-08-30T10:02:47.140Z,17.80
2017-08-30T10:05:15.531Z,17.10
2017-08-30T10:07:43.929Z,17.37
2017-08-30T10:10:12.342Z,15.40
2017-08-30T10:12:40.726Z,17.73
2017-08-30T10:15:08.938Z,14.70
2017-08-30T10:17:37.325Z,17.37
2017-08-30T10:20:05.752Z,16.83
2017-08-30T10:22:34.128Z,16.10
2017-08-30T10:25:02.571Z,16.30
2017-08-30T10:27:31.808Z,17.17
2017-08-30T10:30:00.202Z,15.97
2017-08-30T10:32:28.605Z,16.50
2017-08-30T10:34:57.048Z,18.30
2017-08-30T10:37:25.485Z,18.10
2017-08-30T10:39:53.888Z,17.80
2017-08-30T10:42:22.079Z,16.53
2017-08-30T10:44:50.485Z,19.60
2017-08-30T10:47:18.868Z,19.97
2017-08-30T10:49:47.276Z,21.47
2017-08-30T10:52:15.661Z,24.10
2017-08-30T10:54:44.079Z,20.03
2017-08-30T10:57:12.472Z,22.13
2017-08-30T10:59:40.857Z,22.77
2017-08-30T11:02:09.244Z,22.07
2017-08-30T11:04:37.626Z,22.10
2017-08-30T11:07:06.020Z,21.40
2017-08-30T11:09:34.413Z,17.33
2017-08-30T11:12:02.826Z,16.77
2017-08-30T11:14:31.209Z,16.33
2017-08-30T11:16:59.577Z,15.13
2017-08-30T11:19:27.978Z,17.70
2017-08-30T11:21:56.023Z,17.80
2017-08-30T11:24:24.433Z,16.50
2017-08-30T11:26:53.078Z,14.93
2017-08-30T11:29:21.479Z,17.70
2017-08-30T11:31:49.851Z,15.03
2017-08-30T11:34:18.227Z,15.30
2017-08-30T11:36:46.634Z,16.07
2017-08-30T11:39:15.026Z,16.53
2017-08-30T11:41:43.428Z,15.57
2017-08-30T11:44:12.065Z,16.17
2017-08-30T11:46:40.469Z,17.90
2017-08-30T11:49:08.846Z,18.27
2017-08-30T11:51:37.248Z,17.20
2017-08-30T11:54:05.661Z,16.50
2017-08-30T11:56:34.054Z,16.57
2017-08-30T11:59:02.464Z,17.53
2017-08-30T12:01:30.854Z,17.07
2017-08-30T12:03:59.263Z,21.20
2017-08-30T12:06:27.661Z,17.43
2017-08-30T12:08:56.037Z,14.73
2017-08-30T12:11:24.424Z,15.70
2017-08-30T12:13:52.804Z,17.80
2017-08-30T12:16:21.200Z,15.17
2017-08-30T12:18:49.689Z,16.17
2017-08-30T12:21:18.117Z,15.97
2017-08-30T12:23:46.506Z,17.93
2017-08-30T12:26:14.938Z,16.90
2017-08-30T12:28:43.339Z,16.40
2017-08-30T12:31:11.725Z,17.70
2017-08-30T12:33:40.117Z,18.07
2017-08-30T12:36:08.513Z,17.80
2017-08-30T12:38:43.091Z,18.57
2017-08-30T12:41:11.476Z,15.87
2017-08-30T12:43:39.881Z,15.67
2017-08-30T12:46:08.077Z,18.57
2017-08-30T12:48:36.468Z,17.83
2017-08-30T12:51:04.858Z,17.20
2017-08-30T12:53:34.011Z,18.70
2017-08-30T12:56:02.417Z,19.60
2017-08-30T12:58:30.803Z,16.77
2017-08-30T13:00:59.194Z,19.70
2017-08-30T13:03:27.401Z,18.93
2017-08-30T13:05:55.803Z,19.47
2017-08-30T13:08:24.181Z,18.73
2017-08-30T13:10:52.561Z,17.67
2017-08-30T13:13:21.017Z,16.17
2017-08-30T13:15:49.652Z,17.37
2017-08-30T13:18:18.256Z,17.47
2017-08-30T13:20:46.693Z,16.57
2017-08-30T13:23:15.088Z,17.20
2017-08-30T13:25:44.242Z,13.73
2017-08-30T13:28:12.634Z,16.60
2017-08-30T13:30:41.009Z,18.30
2017-08-30T13:33:09.453Z,17.57
2017-08-30T13:35:37.843Z,19.47
2017-08-30T13:40:41.902Z,17.97
2017-08-30T13:43:13.273Z,19.13
2017-08-30T13:45:41.661Z,17.53
2017-08-30T13:48:10.035Z,15.53
2017-08-30T13:50:38.441Z,16.67
2017-08-30T13:53:06.846Z,18.03
2017-08-30T13:55:35.470Z,17.90
2017-08-30T13:58:03.853Z,18.27
2017-08-30T14:00:32.222Z,18.73
2017-08-30T14:03:00.625Z,18.63
2017-08-30T14:05:29.023Z,18.60
2017-08-30T14:07:57.421Z,16.03
2017-08-30T14:10:25.793Z,17.10
2017-08-30T14:12:54.401Z,19.07
2017-08-30T14:15:22.791Z,19.27
2017-08-30T14:17:51.471Z,19.03
2017-08-30T14:20:19.872Z,20.40
2017-08-30T14:22:48.254Z,18.63
2017-08-30T14:25:16.652Z,19.00
2017-08-30T14:27:45.051Z,20.37
2017-08-30T14:30:13.445Z,18.97
2017-08-30T14:32:41.834Z,19.37
2017-08-30T14:35:10.262Z,19.00
2017-08-30T14:37:39.417Z,16.40
2017-08-30T14:40:07.797Z,19.00
2017-08-30T14:42:36.215Z,21.10
2017-08-30T14:45:04.609Z,19.47
2017-08-30T14:47:32.993Z,19.67
2017-08-30T14:50:01.377Z,19.00
2017-08-30T14:52:29.755Z,19.13
2017-08-30T14:54:58.155Z,16.67
2017-08-30T14:57:26.531Z,19.50
2017-08-30T14:59:54.740Z,21.07
2017-08-30T15:02:23.125Z,20.87
2017-08-30T15:04:51.542Z,17.90
2017-08-30T15:07:19.929Z,19.80
2017-08-30T15:09:48.341Z,20.73
2017-08-30T15:12:16.718Z,20.67
2017-08-30T15:14:45.094Z,18.00
2017-08-30T15:17:13.517Z,20.63
2017-08-30T15:19:41.906Z,20.87
2017-08-30T15:22:10.303Z,20.43
2017-08-30T15:24:38.945Z,21.53
2017-08-30T15:27:07.336Z,20.37
2017-08-30T15:29:35.721Z,18.80
2017-08-30T15:32:04.124Z,18.83
2017-08-30T15:34:32.532Z,20.17
2017-08-30T15:37:00.922Z,19.60
2017-08-30T15:39:29.387Z,17.23
2017-08-30T15:41:57.760Z,19.60
2017-08-30T15:44:26.198Z,22.40
2017-08-30T15:46:54.583Z,22.27
2017-08-30T15:49:23.001Z,18.83
2017-08-30T15:51:52.181Z,19.87
2017-08-30T15:54:20.693Z,21.13
2017-08-30T15:56:49.120Z,20.10
2017-08-30T15:59:18.206Z,18.30
2017-08-30T16:01:46.762Z,19.00
2017-08-30T16:04:15.137Z,19.57
2017-08-30T16:06:43.541Z,18.27
2017-08-30T16:09:11.952Z,18.40
2017-08-30T16:11:41.209Z,19.43
2017-08-30T16:14:09.614Z,19.13
2017-08-30T16:16:38.023Z,17.90
2017-08-30T16:19:06.427Z,18.40
2017-08-30T16:21:34.842Z,19.27
2017-08-30T16:24:03.226Z,20.07
2017-08-30T16:26:31.622Z,19.07
2017-08-30T16:29:00.045Z,19.50
2017-08-30T16:31:28.450Z,21.30
2017-08-30T16:33:56.868Z,18.60
2017-08-30T16:36:26.024Z,21.00
2017-08-30T16:38:54.433Z,17.60
2017-08-30T16:41:22.813Z,19.20
2017-08-30T16:43:51.198Z,19.30
2017-08-30T16:46:19.621Z,18.03
2017-08-30T16:48:48.077Z,15.23
2017-08-30T16:51:16.470Z,18.77
2017-08-30T16:53:44.853Z,18.03
2017-08-30T16:56:13.282Z,18.80
2017-08-30T16:58:41.669Z,18.40
2017-08-30T17:01:09.857Z,20.00
2017-08-30T17:03:38.296Z,21.53
2017-08-30T17:06:06.681Z,18.67
2017-08-30T17:08:34.883Z,21.63
2017-08-30T17:11:04.042Z,24.07
2017-08-30T17:13:32.440Z,18.97
2017-08-30T17:16:01.086Z,20.57
2017-08-30T17:18:29.304Z,18.77
2017-08-30T17:20:57.698Z,20.13
2017-08-30T17:23:26.083Z,21.67
2017-08-30T17:25:54.282Z,18.73
2017-08-30T17:28:22.800Z,20.03
2017-08-30T17:30:51.897Z,19.77
2017-08-30T17:33:20.098Z,18.63
2017-08-30T17:35:48.496Z,16.20
2017-08-30T17:38:16.875Z,18.23
2017-08-30T17:40:46.033Z,19.17
2017-08-30T17:43:14.431Z,20.37
2017-08-30T17:45:42.824Z,20.00
2017-08-30T17:48:11.507Z,20.40
2017-08-30T17:50:39.988Z,21.53
2017-08-30T17:53:08.397Z,21.73
2017-08-30T17:55:36.857Z,20.00
2017-08-30T17:58:05.259Z,20.43
2017-08-30T18:00:33.737Z,18.20
2017-08-30T18:03:02.141Z,19.37
2017-08-30T18:05:30.556Z,18.80
2017-08-30T18:07:59.047Z,19.50
2017-08-30T18:10:27.457Z,18.53
2017-08-30T18:12:55.838Z,18.20
2017-08-30T18:15:24.051Z,18.50
2017-08-30T18:17:52.252Z,17.07
2017-08-30T18:20:20.656Z,17.57
2017-08-30T18:22:49.049Z,15.87
2017-08-30T18:25:17.451Z,17.27
2017-08-30T18:27:45.841Z,17.93
2017-08-30T18:30:14.224Z,17.63
2017-08-30T18:32:42.614Z,18.40
2017-08-30T18:35:11.010Z,17.10
2017-08-30T18:37:39.421Z,18.03
2017-08-30T18:40:07.805Z,13.83
2017-08-30T18:42:36.173Z,18.10
2017-08-30T18:45:04.598Z,15.23
2017-08-30T18:47:33.037Z,17.43
2017-08-30T18:50:01.440Z,15.60
2017-08-30T18:52:29.809Z,18.20
2017-08-30T18:54:58.005Z,17.40
2017-08-30T18:57:26.398Z,19.17
2017-08-30T18:59:54.612Z,12.53
2017-08-30T19:02:23.017Z,10.93
2017-08-30T19:04:51.251Z,11.70
2017-08-30T19:07:19.647Z,9.40
2017-08-30T19:09:48.025Z,9.87
2017-08-30T19:12:16.408Z,9.53
2017-08-30T19:14:44.809Z,9.63
2017-08-30T19:17:13.184Z,9.90
2017-08-30T19:19:41.569Z,9.27
2017-08-30T19:22:09.942Z,7.97
2017-08-30T19:24:38.920Z,9.97
2017-08-30T19:27:08.078Z,9.97
2017-08-30T19:29:36.450Z,9.27
2017-08-30T19:32:04.838Z,8.70
2017-08-30T19:34:33.273Z,8.00
2017-08-30T19:37:01.664Z,8.30
2017-08-30T19:39:29.854Z,8.83
2017-08-30T19:41:58.251Z,8.37
2017-08-30T19:44:26.637Z,8.13
2017-08-30T19:46:55.017Z,7.50
2017-08-30T19:49:23.419Z,7.33
2017-08-30T19:51:51.613Z,7.83
2017-08-30T19:54:19.818Z,7.50
2017-08-30T19:56:48.009Z,7.47
2017-08-30T19:59:16.406Z,7.50
2017-08-30T20:01:44.781Z,7.20
2017-08-30T20:04:13.157Z,7.50
2017-08-30T20:06:41.564Z,7.20
2017-08-30T20:09:10.729Z,7.03
2017-08-30T20:11:39.114Z,8.43
2017-08-30T20:14:07.535Z,8.27
2017-08-30T20:16:35.933Z,8.43
2017-08-30T20:19:04.355Z,7.30
2017-08-30T20:21:33.566Z,8.77
2017-08-30T20:24:01.951Z,7.13
2017-08-30T20:26:30.326Z,8.73
2017-08-30T20:28:58.835Z,8.73
2017-08-30T20:31:27.511Z,8.50
2017-08-30T20:33:55.902Z,7.50
2017-08-30T20:36:24.739Z,7.30
2017-08-30T20:38:53.126Z,8.50
2017-08-30T20:41:22.280Z,7.57
2017-08-30T20:43:50.832Z,7.40
2017-08-30T20:46:19.198Z,8.07
2017-08-30T20:48:47.589Z,7.77
2017-08-30T20:51:16.269Z,7.10
2017-08-30T20:53:44.657Z,7.27
2017-08-30T20:56:13.066Z,7.30
2017-08-30T20:58:41.497Z,7.03
2017-08-30T21:01:10.063Z,7.40
2017-08-30T21:03:38.442Z,8.50
2017-08-30T21:06:07.218Z,8.30
2017-08-30T21:08:35.449Z,7.60
2017-08-30T21:11:03.836Z,8.43
2017-08-30T21:13:32.467Z,8.23
2017-08-30T21:16:00.907Z,7.90
2017-08-30T21:18:29.340Z,7.90
2017-08-30T21:20:57.740Z,9.00
2017-08-30T21:23:26.166Z,8.40
2017-08-30T21:25:54.600Z,7.90
2017-08-30T21:28:23.017Z,7.57
2017-08-30T21:30:51.411Z,8.23
2017-08-30T21:33:19.455Z,8.80
2017-08-30T21:35:48.168Z,9.10
2017-08-30T21:38:16.539Z,7.70
2017-08-30T21:40:45.697Z,8.50
2017-08-30T21:43:14.517Z,9.30
2017-08-30T21:45:43.593Z,9.00
2017-08-30T21:48:12.025Z,10.17
2017-08-30T21:50:41.378Z,9.03
2017-08-30T21:53:09.807Z,9.33
2017-08-30T21:55:38.275Z,8.70
2017-08-30T21:58:07.012Z,9.70
2017-08-30T22:00:35.421Z,8.43
2017-08-30T22:03:03.908Z,10.07
2017-08-30T22:05:32.476Z,9.27
2017-08-30T22:08:00.878Z,9.53
2017-08-30T22:10:29.257Z,9.50
2017-08-30T22:12:57.650Z,10.00
2017-08-30T22:15:26.031Z,11.20
2017-08-30T22:17:54.413Z,11.07
2017-08-30T22:20:22.845Z,11.83
2017-08-30T22:22:51.229Z,11.10
2017-08-30T22:25:19.597Z,9.80
2017-08-30T22:27:48.218Z,10.50
2017-08-30T22:30:16.592Z,11.47
2017-08-30T22:32:44.969Z,11.10
2017-08-30T22:35:13.363Z,12.13
2017-08-30T22:37:41.740Z,11.37
2017-08-30T22:40:09.934Z,13.37
2017-08-30T22:42:38.556Z,12.67
2017-08-30T22:45:06.940Z,14.30
2017-08-30T22:47:35.327Z,14.03
2017-08-30T22:50:03.730Z,13.13
2017-08-30T22:52:32.118Z,12.13
2017-08-30T22:55:00.493Z,14.77
2017-08-30T22:57:28.913Z,13.17
2017-08-30T22:59:57.289Z,12.03
2017-08-30T23:02:25.689Z,14.03
2017-08-30T23:04:54.260Z,13.90
2017-08-30T23:07:22.645Z,14.40
2017-08-30T23:09:51.039Z,13.50
2017-08-30T23:12:19.469Z,14.37
2017-08-30T23:14:47.848Z,13.40
2017-08-30T23:17:16.086Z,14.93
2017-08-30T23:19:44.560Z,12.63
2017-08-30T23:22:12.942Z,13.80
2017-08-30T23:24:41.431Z,13.50
2017-08-30T23:27:10.018Z,13.27
2017-08-30T23:29:38.397Z,12.17
2017-08-30T23:32:06.785Z,11.77
2017-08-30T23:34:35.381Z,10.87
2017-08-30T23:37:03.757Z,12.03
2017-08-30T23:39:32.139Z,10.13
2017-08-30T23:42:00.747Z,10.63
2017-08-30T23:44:29.914Z,9.90
2017-08-30T23:46:58.321Z,9.03
2017-08-30T23:49:26.809Z,6.90
2017-08-30T23:51:54.988Z,8.10
2017-08-30T23:54:24.125Z,7.43
2017-08-30T23:56:52.661Z,8.30
2017-08-30T23:59:21.033Z,8.57
